VALENCIA, VC current weather conditions

sailwx.info

Wind from 010 at 2 knots

Air temperature 10.0° C
Dewpoint 2.0° C

Last reported at 2014-Oct-23 03:00 UTC.
Time now 2014-Oct-23 05:55 UTC

Location: N 39°35' W 000°27'.
View on Google Maps.

See reports from other nearby stations

  
Tides and Currents Weather Stations Pressure Air Temp Water Temp Dewpoint Dewpoint Depression Visibility Wind Speed Wind Dir Waves Ship Positions
date/time (UTC)wind fromknots sea level pressurealtimeterstation pressurevisibilityair tempwater tempwave heightnotes
2014-Oct-23 03:00 010 2 10.0
2014-Oct-23 02:00 11.0
2014-Oct-23 01:00 11.0
2014-Oct-23 00:00 330 3 12.0
2014-Oct-22 23:00 13.0
2014-Oct-22 22:00 350 3 5.414.0
2014-Oct-22 21:00 340 5 15.0
2014-Oct-22 20:00 350 5 15.0
2014-Oct-22 19:00 360 5 16.0
2014-Oct-22 18:00 18.0
2014-Oct-22 17:00 20.0
2014-Oct-22 16:00 130 5 22.0
2014-Oct-22 15:00 120 7 23.0
2014-Oct-22 14:00 110 8 24.0
2014-Oct-22 13:00 120 11 24.0
2014-Oct-22 11:00 340 5 27.0
2014-Oct-22 10:00 340 9 gusting 20 26.0
2014-Oct-22 09:00 330 7 gusting 17 25.0
2014-Oct-22 08:00 310 7 23.0
2014-Oct-22 07:00 300 5 21.0
2014-Oct-22 06:00 310 8 gusting 18 21.0
2014-Oct-22 05:00 300 12 gusting 22 21.0
2014-Oct-22 04:00 330 8 gusting 23 22.0
2014-Oct-22 03:00 250 4 21.0
2014-Oct-22 02:00 340 8 gusting 19 25.0
2014-Oct-22 01:00 330 3 22.0
2014-Oct-22 00:00 19.0
2014-Oct-21 23:00 20.0
2014-Oct-21 22:00 21.0
2014-Oct-21 21:00 290 3 22.0
2014-Oct-21 20:00 330 4 25.0
2014-Oct-21 19:00 350 5 26.0
2014-Oct-21 18:00 340 3 28.0
2014-Oct-21 17:00 310 4 32.0
2014-Oct-21 16:00 310 10 33.0
2014-Oct-21 15:00 310 8 34.0
2014-Oct-21 14:00 290 12 35.0
2014-Oct-21 13:00 310 13 34.0
2014-Oct-21 12:00 35.0
2014-Oct-21 09:00 26.0
2014-Oct-21 08:00 22.0
2014-Oct-21 07:00 280 3 18.0
2014-Oct-21 06:00 330 3 19.0